Kezdőlap
METAR-TAF:

METAR-TAF

Repülőterek :

Hannibal, Missouri, Amerikai Egyesült Államok

földrajzi szélesség: 39-43-31N, földrajzi hosszúság: 091-26-38W, magasság: 234 m

Jelenlegi meteorológiai megfigyelések

A jelentés 18 perccel ezelõtt készült, 07:55 UTC
Déli szél 6 kt
Hőmérséklet 25°C
Páratartalom 89%
Légköri nyomás 1015 hPa
Látótávolság: 8.0 km
Derült ég
Párásság

METAR: KHAE 100755Z AUTO 18006KT 5SM BR CLR 25/23 A2997 RMK AO2

Idő: 03:13 (08:13 UTC)


TAF: hiányzik

Meteorológiai megfigyelések és előrejelzések több, mint 4000 repülőtéren (METAR és TAF jelentéseket).

A térképen piros és sárga pontok jelzik az elérhető meteorológiai állomásokat.

Mozgassa az egeret a pont fölött, hogy megjelenjen az állomás neve.

Azután kattintson az időjárási megfigyelések és előrejelzések megtekintéséhez.

A térkép megváltoztatása: kattintson a fekete keresztel jelölt zöld gombra ráközelítéshez, a vonallal jelölt zöld gombra távolításhoz, vagy a zöld nyilakra a szomszédos térképek eléréséhez.


METAR-TAF: